Athens Eleftherios, Greece

1:34 AM EET on February 06, 2016 (GMT +0200)
Pallini Kantza | | Change Station
CLOSE
Current Station
Personal Weather Station
Location: Kantza Pallini Attica, GREECE
Elevation: 590 ft
Nearby Weather Stations

Elev 590 ft 37.99 °N, 23.86 °E | Updated 21 seconds ago

Light Rain
Light Rain
38.4 °F
Feels Like 33 °F
N
7.1
Wind Variable Wind from NW
Gusts 8.0 mph

Today
High -- | Low -- °F
--% Chance of Precip.
Yesterday
High -- | Low -- °F
Precip. -- in
Pressure 30.15 in
Visibility 6.2 miles
Clouds Few 1800 ft
Scattered Clouds 2500 ft
Mostly Cloudy 7000 ft
Windchill 33 °F
Dew Point 35 °F
Humidity 87%
Rainfall 0.04 in
Snow Depth Not available.
7:24 AM 5:52 PM
Waning Crescent, 9% visible
METAR LGAV 052320Z 36013G27KT 9999 -RA FEW018 SCT025 BKN070 05/02 Q1021 NOSIG
Pressure 30.15 in
Visibility 6.2 miles
Clouds Few 1800 ft
Scattered Clouds 2500 ft
Mostly Cloudy 7000 ft
Windchill 33 °F
Dew Point 35 °F
Humidity 87%
Rainfall 0.04 in
Snow Depth Not available.
7:24 AM 5:52 PM
Waning Crescent, 9% visible
METAR LGAV 052320Z 36013G27KT 9999 -RA FEW018 SCT025 BKN070 05/02 Q1021 NOSIG

10-Day Weather Forecast

Almanac

Astronomy

Feb. 06, 2016 Rise Set
Actual Time
Civil Twilight
Nautical Twilight
Astronomical Twilight
Moon
Length of Visible Light
Length of Day
Tomorrow will be .
, % of the Moon is Illuminated

Today's Extremes

Country Highs Country Lows

Community

WunderPhotos

Upload Photos

1,890,881 photos uploaded!

WunderBlog® & News

Nearby

Air Quality

  Air Quality AQ Index Pollutant
Not available.

Snow Depth

Station Depth Elevation

Earthquake Activity

City Distance Mag. Time & Date
Minimum magnitude displayed is 2.5.

Coastal Water Temperatures

Place Temperature

Stations

Nearby Weather Stations

Station Location Temp. Windchill Dew Point Humidity Wind Precip. Elev Updated Type